Hauptseite
METAR-TAF:

METAR-TAF

Flughäfen :

Peking, China

Flughafen Peking

Breite: 39-56N, Länge: 116-17E, Höhe: 55 m

Beobachtung

Neuester Wetterbericht von vor 17 Minuten, um 21:30 UTC
Wind 2 kt aus unterschiedlichen Richtungen
Temperatur -6°C
Luftfeuchtigkeit 73%
Luftdruck 1019 hPa
Sichtweite 10 km oder mehr
keine Wolken unter 1500 m und keine Kumulonimbus oder Gewitterwolken

METAR: ZBAA 252130Z VRB01MPS CAVOK M06/M10 Q1019 NOSIG

Zeit: 05:47 (21:47 UTC)

Prognose

Neuester Wetterbericht von vor 6 Stunden und 27 Minuten, um 15:20 UTC
Gültige Prognose vom 25 um 18 UTC bis 26 um 18 UTC
Wind 8 kt aus Ost/Nordost
Sichtweite 10 km oder mehr
keine Wolken unter 1500 m und keine Kumulonimbus oder Gewitterwolken

TAF: ZBAA 251520Z 2518/2618 06004MPS CAVOK TX11/2607Z TNM06/21Z

Wetterbeobachtungen und Prognosen von mehr als 4000 Flughäfen (METAR und TAF Bericht).

Die verfügbaren Stationen werden durch gelbe und rote Markierungen auf der Karte dargestellt.

Führen Sie die Maus auf sie, um den Namen der Station zu sehen.

Darauf klicken, um die Beobachtung von Wetterbeobachtungen und Prognosen zu sehen.

Um die Karte zu ändern : klicken Sie auf den grünen Tasten mit einem schwarzen Kreuz Zum Vergrößern, auf den grünen Button mit einem Gedankenstrich zu verkleinern, oder auf die grünen Pfeile für benachbarte Karten.


METAR-TAF: